Time;durP1;ratioP1;P1;durP2;ratioP2;P2;SDS_P1;SDS_P2;PMS_P1;PMS_P2;Temp;Humidity;BMP_temperature;BMP_pressure;BME280_temperature;BME280_humidity;BME280_pressure;Samples;Min_cycle;Max_cycle;Signal;HPM_P1;HPM_P2
2022/03/02 00:02:15;;;;;;;;;;;;;;;12.39;59.05;101669.25;5014136;28;1369;-33
2022/03/02 00:04:41;;;;;;;;;;;;;;;12.42;58.33;101660.31;5014571;28;1072;-33
2022/03/02 00:07:08;;;;;;;;;;;;;;;12.45;58.73;101676.06;5014088;28;1139;-33
2022/03/02 00:09:35;;;;;;;;;;;;;;;12.45;58.56;101662.81;5014331;28;1124;-33
2022/03/02 00:12:02;;;;;;;;;;;;;;;12.44;58.68;101663.75;5014621;28;1003;-33
2022/03/02 00:14:28;;;;;;;;;;;;;;;12.44;58.81;101664.59;5014337;28;1095;-33
2022/03/02 00:16:56;;;;;;;;;;;;;;;12.43;58.84;101657.56;5014275;28;1981;-33
2022/03/02 00:19:22;;;;;;;;;;;;;;;12.45;58.61;101657.50;5014176;28;1086;-33
2022/03/02 00:21:49;;;;;;;;;;;;;;;12.44;57.95;101653.13;5014247;28;1082;-33
2022/03/02 00:24:15;;;;;;;;;;;;;;;12.46;58.58;101643.31;5014247;28;1036;-33
2022/03/02 00:26:42;;;;;;;;;;;;;;;12.43;58.92;101646.09;5014585;28;1944;-33
2022/03/02 00:29:08;;;;;;;;;;;;;;;12.40;58.77;101631.19;5013830;28;1184;-33
2022/03/02 00:31:35;;;;;;;;;;;;;;;12.43;58.87;101640.78;5013731;28;1081;-33
2022/03/02 00:34:02;;;;;;;;;;;;;;;12.38;58.71;101642.81;5013786;28;1096;-33
2022/03/02 00:36:29;;;;;;;;;;;;;;;12.38;58.12;101633.06;5013963;28;1973;-33
2022/03/02 00:38:55;;;;;;;;;;;;;;;12.33;58.78;101635.94;5014063;28;1012;-33
2022/03/02 00:41:22;;;;;;;;;;;;;;;12.36;58.38;101623.47;5014003;28;1096;-33
2022/03/02 00:43:48;;;;;;;;;;;;;;;12.34;58.81;101624.38;5013577;28;1222;-33
2022/03/02 00:46:15;;;;;;;;;;;;;;;12.38;58.75;101616.28;5013669;28;1064;-33
2022/03/02 00:48:42;;;;;;;;;;;;;;;12.39;58.50;101613.53;5014134;28;1056;-33
2022/03/02 00:51:10;;;;;;;;;;;;;;;12.40;58.77;101619.72;5013862;28;1075;-33
2022/03/02 00:53:37;;;;;;;;;;;;;;;12.38;58.90;101621.59;5013910;28;1181;-33
2022/03/02 00:56:03;;;;;;;;;;;;;;;12.39;59.00;101615.34;5013797;28;1906;-33
2022/03/02 00:58:30;;;;;;;;;;;;;;;12.42;58.75;101618.72;5013820;28;1064;-33
2022/03/02 01:00:56;;;;;;;;;;;;;;;12.38;58.42;101608.34;5013399;28;1076;-33
2022/03/02 01:03:23;;;;;;;;;;;;;;;12.41;58.85;101611.69;5013598;28;1467;-33
2022/03/02 01:05:49;;;;;;;;;;;;;;;12.42;58.80;101610.75;5013462;28;1129;-33
2022/03/02 01:08:17;;;;;;;;;;;;;;;12.41;58.84;101597.56;5013389;28;1096;-33
2022/03/02 01:10:44;;;;;;;;;;;;;;;12.41;58.94;101594.91;5013433;28;1068;-33
2022/03/02 01:13:10;;;;;;;;;;;;;;;12.38;58.29;101595.06;5013720;28;1028;-33
2022/03/02 01:15:37;;;;;;;;;;;;;;;12.38;58.34;101595.94;5013599;28;1976;-33
2022/03/02 01:18:03;;;;;;;;;;;;;;;12.40;58.79;101588.75;5013624;28;1008;-33
2022/03/02 01:20:29;;;;;;;;;;;;;;;12.41;58.85;101589.59;5013322;28;1191;-33
2022/03/02 01:22:56;;;;;;;;;;;;;;;12.41;58.14;101586.94;5013324;28;1112;-32
2022/03/02 01:25:24;;;;;;;;;;;;;;;12.43;58.27;101585.09;5013299;28;1147;-33
2022/03/02 01:27:50;;;;;;;;;;;;;;;12.34;58.69;101573.97;5013275;28;1088;-33
2022/03/02 01:30:17;;;;;;;;;;;;;;;12.34;58.75;101584.59;5013530;28;1028;-33
2022/03/02 01:32:44;;;;;;;;;;;;;;;12.34;59.06;101573.97;5013127;28;1151;-33
2022/03/02 01:35:11;;;;;;;;;;;;;;;12.32;58.95;101569.69;5013205;28;1092;-33
2022/03/02 01:37:38;;;;;;;;;;;;;;;12.32;58.25;101569.69;5013155;28;1972;-33
2022/03/02 01:40:04;;;;;;;;;;;;;;;12.37;58.89;101574.78;5013489;28;1095;-33
2022/03/02 01:42:32;;;;;;;;;;;;;;;12.42;58.80;101570.13;5013450;28;1083;-33
2022/03/02 01:44:59;;;;;;;;;;;;;;;12.41;58.60;101561.28;5013435;28;1160;-33
2022/03/02 01:47:29;;;;;;;;;;;;;;;12.41;58.67;101557.78;5013620;28;1000;-33
2022/03/02 01:49:56;;;;;;;;;;;;;;;12.37;58.28;101556.22;5016087;28;1094;-33
2022/03/02 01:52:22;;;;;;;;;;;;;;;12.37;58.95;101548.25;5016950;28;1089;-33
2022/03/02 01:54:49;;;;;;;;;;;;;;;12.39;58.52;101554.34;5016866;28;1086;-33
2022/03/02 01:57:15;;;;;;;;;;;;;;;12.37;58.59;101557.06;5016488;28;1906;-33
2022/03/02 01:59:43;;;;;;;;;;;;;;;12.41;58.88;101558.63;5016783;28;1078;-33
2022/03/02 02:02:09;;;;;;;;;;;;;;;12.36;58.52;101550.06;5016383;28;1289;-33
2022/03/02 02:04:36;;;;;;;;;;;;;;;12.40;58.82;101540.16;5016426;28;1105;-33
2022/03/02 02:07:03;;;;;;;;;;;;;;;12.40;58.64;101540.16;5016594;28;1084;-33
2022/03/02 02:09:30;;;;;;;;;;;;;;;12.36;58.33;101534.13;5016543;28;1146;-33
2022/03/02 02:11:56;;;;;;;;;;;;;;;12.36;58.21;101533.28;5016606;28;963;-33
2022/03/02 02:14:23;;;;;;;;;;;;;;;12.38;59.06;101529.63;5016524;28;1012;-33
2022/03/02 02:16:50;;;;;;;;;;;;;;;12.29;58.42;101527.38;5016405;28;1887;-33
2022/03/02 02:19:17;;;;;;;;;;;;;;;12.31;58.15;101530.84;5016382;28;1102;-33
2022/03/02 02:21:46;;;;;;;;;;;;;;;12.32;59.01;101533.41;5016404;28;1045;-33
2022/03/02 02:24:13;;;;;;;;;;;;;;;12.28;58.68;101531.00;5016062;28;1147;-33
2022/03/02 02:26:39;;;;;;;;;;;;;;;12.27;58.90;101524.81;5016180;28;1130;-33
2022/03/02 02:29:06;;;;;;;;;;;;;;;12.27;59.02;101522.16;5016265;28;1000;-33
2022/03/02 02:31:32;;;;;;;;;;;;;;;12.28;57.80;101521.25;5016127;28;1094;-33
2022/03/02 02:33:59;;;;;;;;;;;;;;;12.30;58.55;101524.69;5015868;28;1092;-33
2022/03/02 02:36:25;;;;;;;;;;;;;;;12.29;58.74;101524.75;5015768;28;1894;-33
2022/03/02 02:38:54;;;;;;;;;;;;;;;12.33;58.76;101534.25;5016047;28;1083;-33
2022/03/02 02:41:20;;;;;;;;;;;;;;;12.32;57.89;101516.66;5016047;28;1008;-33
2022/03/02 02:43:47;;;;;;;;;;;;;;;12.33;58.41;101526.31;5015861;28;944;-33
2022/03/02 02:46:14;;;;;;;;;;;;;;;12.34;58.79;101518.28;5015926;28;1086;-33
2022/03/02 02:48:40;;;;;;;;;;;;;;;12.35;58.63;101516.50;5015912;28;1082;-33
2022/03/02 02:51:08;;;;;;;;;;;;;;;12.34;58.74;101512.13;5015863;28;1087;-33
2022/03/02 02:53:35;;;;;;;;;;;;;;;12.33;58.39;101505.97;5015815;28;1075;-33
2022/03/02 02:56:03;;;;;;;;;;;;;;;12.36;58.57;101504.09;5015708;28;980;-33
2022/03/02 02:58:29;;;;;;;;;;;;;;;12.34;58.20;101502.38;5015620;28;1910;-33
2022/03/02 03:01:15;;;;;;;;;;;;;;;12.35;58.83;101492.63;5134177;23;3766;-32
2022/03/02 03:03:49;;;;;;;;;;;;;;;12.28;57.78;101509.78;5016927;28;1056;-32
2022/03/02 03:06:15;;;;;;;;;;;;;;;12.25;58.08;101499.31;5015684;28;1097;-32
2022/03/02 03:08:41;;;;;;;;;;;;;;;12.29;58.64;101503.53;5014221;28;1174;-32
2022/03/02 03:11:09;;;;;;;;;;;;;;;12.28;58.93;101499.16;5015218;28;951;-32
2022/03/02 03:13:36;;;;;;;;;;;;;;;12.33;58.60;101497.13;5015196;28;1944;-32
2022/03/02 03:16:02;;;;;;;;;;;;;;;12.34;57.98;101491.75;5015534;28;987;-32
2022/03/02 03:18:29;;;;;;;;;;;;;;;12.31;58.29;101489.28;5015350;28;1973;-32
2022/03/02 03:20:55;;;;;;;;;;;;;;;12.37;58.76;101492.56;5015489;28;1229;-32
2022/03/02 03:23:22;;;;;;;;;;;;;;;12.36;58.59;101493.50;5015298;28;1000;-32
2022/03/02 03:25:48;;;;;;;;;;;;;;;12.34;58.31;101481.16;5014965;28;1104;-32
2022/03/02 03:28:16;;;;;;;;;;;;;;;12.33;58.58;101487.41;5014844;28;1147;-32
2022/03/02 03:30:43;;;;;;;;;;;;;;;12.38;58.63;101488.97;5015304;28;1093;-32
2022/03/02 03:33:09;;;;;;;;;;;;;;;12.37;58.12;101495.19;5015243;28;1064;-32
2022/03/02 03:35:36;;;;;;;;;;;;;;;12.34;58.06;101485.59;5014793;28;1071;-32
2022/03/02 03:38:02;;;;;;;;;;;;;;;12.32;58.79;101480.38;5013403;28;1902;-32
2022/03/02 03:40:29;;;;;;;;;;;;;;;12.32;58.57;101469.75;5014772;28;1100;-32
2022/03/02 03:42:55;;;;;;;;;;;;;;;12.33;58.68;101474.16;5014714;28;1108;-32
2022/03/02 03:45:23;;;;;;;;;;;;;;;12.33;58.07;101474.16;5014590;28;1199;-32
2022/03/02 03:47:50;;;;;;;;;;;;;;;12.31;58.78;101473.38;5014941;28;1222;-32
2022/03/02 03:50:16;;;;;;;;;;;;;;;12.30;58.66;101471.63;5014882;28;1049;-32
2022/03/02 03:52:43;;;;;;;;;;;;;;;12.26;58.20;101464.75;5014844;28;1004;-32
2022/03/02 03:55:10;;;;;;;;;;;;;;;12.25;58.78;101468.34;5014939;28;1012;-32
2022/03/02 03:57:37;;;;;;;;;;;;;;;12.24;58.08;101456.03;5015459;28;1906;-32
2022/03/02 04:00:04;;;;;;;;;;;;;;;12.27;58.74;101471.78;5014385;28;1159;-32
2022/03/02 04:02:32;;;;;;;;;;;;;;;12.27;58.94;101450.56;5013804;28;1305;-32
2022/03/02 04:04:59;;;;;;;;;;;;;;;12.29;58.36;101453.13;5014552;28;1027;-32
2022/03/02 04:07:26;;;;;;;;;;;;;;;12.32;58.61;101464.47;5014509;28;1083;-32
2022/03/02 04:09:52;;;;;;;;;;;;;;;12.31;59.00;101464.53;5014390;28;1078;-32
2022/03/02 04:12:19;;;;;;;;;;;;;;;12.35;58.14;101466.09;5014275;28;1087;-32
2022/03/02 04:14:45;;;;;;;;;;;;;;;12.32;57.62;101450.34;5014167;28;1080;-32
2022/03/02 04:17:12;;;;;;;;;;;;;;;12.26;58.09;101445.34;5014008;28;1910;-32
2022/03/02 04:19:40;;;;;;;;;;;;;;;12.26;59.25;101448.00;5014088;28;1092;-32
2022/03/02 04:22:06;;;;;;;;;;;;;;;12.22;58.72;101447.28;5014070;28;1163;-32
2022/03/02 04:24:33;;;;;;;;;;;;;;;12.24;58.16;101449.88;5014062;28;1120;-32
2022/03/02 04:26:59;;;;;;;;;;;;;;;12.25;57.95;101443.63;5014203;28;1074;-32
2022/03/02 04:29:26;;;;;;;;;;;;;;;12.23;59.16;101442.84;5014301;28;1075;-32
2022/03/02 04:31:52;;;;;;;;;;;;;;;12.30;58.76;101450.41;5013941;28;1104;-32
2022/03/02 04:34:19;;;;;;;;;;;;;;;12.27;58.89;101428.50;5013877;28;1076;-32
2022/03/02 04:36:46;;;;;;;;;;;;;;;12.29;58.70;101442.53;5013812;28;1910;-32
2022/03/02 04:39:13;;;;;;;;;;;;;;;12.25;58.68;101430.34;5014112;28;1090;-32
2022/03/02 04:41:39;;;;;;;;;;;;;;;12.27;58.21;101444.41;5014001;28;1086;-32
2022/03/02 04:44:06;;;;;;;;;;;;;;;12.23;58.06;101433.06;5014054;28;1064;-32
2022/03/02 04:46:33;;;;;;;;;;;;;;;12.22;58.41;101436.69;5013721;28;1151;-32
2022/03/02 04:49:10;;;;;;;;;;;;;;;12.28;58.84;101441.69;5013704;28;1160;-32
2022/03/02 04:51:36;;;;;;;;;;;;;;;12.26;58.19;101438.25;5013824;28;1073;-32
2022/03/02 04:54:04;;;;;;;;;;;;;;;12.29;58.92;101442.53;5013664;28;1184;-32
2022/03/02 04:56:31;;;;;;;;;;;;;;;12.28;58.10;101433.72;5013602;28;1068;-32
2022/03/02 04:58:57;;;;;;;;;;;;;;;12.31;58.01;101441.53;5013637;28;1902;-32
2022/03/02 05:01:24;;;;;;;;;;;;;;;12.29;58.46;101427.47;5013700;28;1487;-33
2022/03/02 05:03:57;;;;;;;;;;;;;;;12.28;57.87;101435.53;5013307;28;1183;-32
2022/03/02 05:06:23;;;;;;;;;;;;;;;12.28;58.78;101440.81;5013840;28;1077;-32
2022/03/02 05:08:50;;;;;;;;;;;;;;;12.32;58.41;101440.59;5013867;28;1012;-32
2022/03/02 05:11:17;;;;;;;;;;;;;;;12.27;58.68;101433.78;5013807;28;1015;-32
2022/03/02 05:13:44;;;;;;;;;;;;;;;12.27;58.96;101421.38;5013548;28;1138;-32
2022/03/02 05:16:10;;;;;;;;;;;;;;;12.27;58.65;101437.28;5013442;28;1072;-32
2022/03/02 05:18:41;;;;;;;;;;;;;;;12.26;58.69;101427.63;5013288;28;1903;-32
2022/03/02 05:21:08;;;;;;;;;;;;;;;12.28;58.16;101431.06;5013428;28;1127;-32
2022/03/02 05:23:34;;;;;;;;;;;;;;;12.26;57.90;101432.94;5014193;28;1015;-32
2022/03/02 05:26:01;;;;;;;;;;;;;;;12.26;57.90;101432.94;5017532;28;1024;-32
2022/03/02 05:28:29;;;;;;;;;;;;;;;12.22;58.25;101433.19;5017458;28;1074;-32
2022/03/02 05:30:55;;;;;;;;;;;;;;;12.22;58.15;101452.59;5017413;28;1028;-32
2022/03/02 05:33:22;;;;;;;;;;;;;;;12.25;58.67;101447.13;5017412;28;1101;-32
2022/03/02 05:35:48;;;;;;;;;;;;;;;12.25;58.66;101436.50;5017391;28;1126;-32
2022/03/02 05:38:14;;;;;;;;;;;;;;;12.28;58.84;101424.91;5017284;28;1906;-32
2022/03/02 05:40:41;;;;;;;;;;;;;;;12.25;58.01;101430.34;5017130;28;2100;-33
2022/03/02 05:43:07;;;;;;;;;;;;;;;12.27;58.09;101429.34;5017245;28;1000;-32
2022/03/02 05:45:35;;;;;;;;;;;;;;;12.25;58.67;101430.34;5017157;28;995;-32
2022/03/02 05:48:02;;;;;;;;;;;;;;;12.30;59.23;101445.13;5017110;28;1071;-32
2022/03/02 05:50:28;;;;;;;;;;;;;;;12.28;58.54;101435.53;5017107;28;1084;-32
2022/03/02 05:52:54;;;;;;;;;;;;;;;12.25;58.03;101420.59;5016915;28;1093;-32
2022/03/02 05:55:21;;;;;;;;;;;;;;;12.28;58.76;101428.41;5016932;28;1094;-32
2022/03/02 05:57:47;;;;;;;;;;;;;;;12.28;57.95;101424.91;5016873;28;1975;-32
2022/03/02 06:00:14;;;;;;;;;;;;;;;12.26;58.62;101432.94;5016857;28;994;-32
2022/03/02 06:02:42;;;;;;;;;;;;;;;12.22;58.03;101434.03;5016280;28;1491;-32
2022/03/02 06:05:10;;;;;;;;;;;;;;;12.25;58.85;101435.66;5016676;28;1056;-32
2022/03/02 06:07:37;;;;;;;;;;;;;;;12.28;58.48;101436.38;5016706;28;992;-32
2022/03/02 06:10:03;;;;;;;;;;;;;;;12.28;58.48;101438.19;5016676;28;1075;-32
2022/03/02 06:12:30;;;;;;;;;;;;;;;12.20;58.91;101433.25;5016358;28;1139;-32
2022/03/02 06:14:57;;;;;;;;;;;;;;;12.21;58.70;101434.94;5016551;28;1143;-32
2022/03/02 06:17:23;;;;;;;;;;;;;;;12.19;58.42;101426.22;5016364;28;1906;-32
2022/03/02 06:19:51;;;;;;;;;;;;;;;12.23;58.74;101437.53;5016164;28;1148;-32
2022/03/02 06:22:22;;;;;;;;;;;;;;;12.23;58.66;101425.13;5016424;28;996;-32
2022/03/02 06:24:48;;;;;;;;;;;;;;;12.19;57.72;101422.72;5016399;28;1097;-32
2022/03/02 06:27:20;;;;;;;;;;;;;;;12.22;58.23;101425.22;5015993;28;1111;-32
2022/03/02 06:29:46;;;;;;;;;;;;;;;12.22;58.17;101426.06;5016214;28;1000;-32
2022/03/02 06:32:13;;;;;;;;;;;;;;;12.25;58.39;101435.66;5016300;28;1049;-32
2022/03/02 06:34:39;;;;;;;;;;;;;;;12.27;58.77;101439.94;5015809;28;1163;-32
2022/03/02 06:37:07;;;;;;;;;;;;;;;12.27;58.67;101445.25;5016171;28;1012;-32
2022/03/02 06:39:34;;;;;;;;;;;;;;;12.28;58.05;101435.53;5016062;28;1977;-32
2022/03/02 06:42:05;;;;;;;;;;;;;;;12.27;58.83;101436.44;5016018;28;1078;-32
2022/03/02 06:44:34;;;;;;;;;;;;;;;12.24;59.04;101432.16;5016026;28;1248;-32
2022/03/02 06:47:02;;;;;;;;;;;;;;;12.25;58.68;101425.91;5015704;28;1087;-32
2022/03/02 06:49:31;;;;;;;;;;;;;;;12.25;58.08;101419.75;5015984;28;1055;-32
2022/03/02 06:51:59;;;;;;;;;;;;;;;12.28;58.02;101441.69;5015805;28;1004;-32
2022/03/02 06:54:28;;;;;;;;;;;;;;;12.23;58.80;101430.44;5015854;28;1089;-32
2022/03/02 06:56:56;;;;;;;;;;;;;;;12.25;58.51;101428.56;5015717;28;1036;-32
2022/03/02 06:59:29;;;;;;;;;;;;;;;12.19;58.76;101428.84;5016226;28;1907;-32
2022/03/02 07:01:59;;;;;;;;;;;;;;;12.22;58.02;101436.69;5015340;28;1407;-32
2022/03/02 07:04:27;;;;;;;;;;;;;;;12.18;57.87;101440.41;4996288;28;1070;-32
2022/03/02 07:06:55;;;;;;;;;;;;;;;12.20;58.02;101435.91;4996425;28;999;-32
2022/03/02 07:09:22;;;;;;;;;;;;;;;12.21;59.07;101434.09;4995970;28;1986;-32
2022/03/02 07:11:51;;;;;;;;;;;;;;;12.23;58.72;101422.47;4995658;28;1100;-33
2022/03/02 07:14:17;;;;;;;;;;;;;;;12.26;58.60;101422.34;4995991;28;1071;-32
2022/03/02 07:16:44;;;;;;;;;;;;;;;12.23;58.85;101419.81;4995569;28;1100;-32
2022/03/02 07:19:11;;;;;;;;;;;;;;;12.26;58.57;101430.28;4995689;28;1973;-32
2022/03/02 07:21:38;;;;;;;;;;;;;;;12.26;58.09;101413.53;4995503;28;1088;-32
2022/03/02 07:24:06;;;;;;;;;;;;;;;12.27;58.02;101421.38;4995703;28;1075;-32
2022/03/02 07:26:35;;;;;;;;;;;;;;;12.29;58.63;101424.81;4995642;28;1071;-32
2022/03/02 07:29:03;;;;;;;;;;;;;;;12.25;58.75;101415.28;4995252;28;1068;-32
2022/03/02 07:31:30;;;;;;;;;;;;;;;12.25;58.75;101420.59;4995566;28;1149;-32
2022/03/02 07:34:02;;;;;;;;;;;;;;;12.26;58.63;101417.03;4995313;28;1104;-32
2022/03/02 07:36:28;;;;;;;;;;;;;;;12.32;58.18;101421.19;4995256;28;1255;-32
2022/03/02 07:38:55;;;;;;;;;;;;;;;12.26;58.99;101414.38;4995063;28;1975;-32
2022/03/02 07:41:21;;;;;;;;;;;;;;;12.27;58.77;101415.22;4995065;28;1348;-32
2022/03/02 07:43:54;;;;;;;;;;;;;;;12.30;59.05;101423.06;4995396;28;992;-32
2022/03/02 07:46:22;;;;;;;;;;;;;;;12.26;58.46;101411.72;4994526;28;1123;-32
2022/03/02 07:48:48;;;;;;;;;;;;;;;12.23;58.08;101421.63;4994945;28;1151;-32
2022/03/02 07:51:16;;;;;;;;;;;;;;;12.15;58.50;101414.03;4994914;28;1110;-32
2022/03/02 07:53:43;;;;;;;;;;;;;;;12.16;58.60;101410.47;4996021;28;1021;-32
2022/03/02 07:56:11;;;;;;;;;;;;;;;12.20;58.77;101416.47;4995386;28;1214;-32
2022/03/02 07:58:38;;;;;;;;;;;;;;;12.24;58.82;101413.59;4994740;28;1941;-32
2022/03/02 08:01:05;;;;;;;;;;;;;;;12.24;58.10;101402.13;4996057;28;1004;-32
2022/03/02 08:03:34;;;;;;;;;;;;;;;12.20;58.82;101398.78;5007294;28;1416;-32
2022/03/02 08:06:01;;;;;;;;;;;;;;;12.19;58.17;101404.16;5014499;28;996;-32
2022/03/02 08:08:27;;;;;;;;;;;;;;;12.20;57.96;101411.19;5014223;28;1080;-32
2022/03/02 08:10:54;;;;;;;;;;;;;;;12.17;58.40;101393.59;5014516;28;1064;-32
2022/03/02 08:13:20;;;;;;;;;;;;;;;12.17;58.11;101390.09;5014448;28;1093;-32
2022/03/02 08:15:47;;;;;;;;;;;;;;;12.21;57.85;101391.66;5014116;28;1112;-32
2022/03/02 08:18:13;;;;;;;;;;;;;;;12.22;58.14;101394.25;5014250;28;1975;-32
2022/03/02 08:20:46;;;;;;;;;;;;;;;12.25;58.56;101388.78;5014371;28;1093;-32
2022/03/02 08:23:12;;;;;;;;;;;;;;;12.30;58.72;101385.91;5014287;28;1090;-32
2022/03/02 08:25:39;;;;;;;;;;;;;;;12.31;58.61;101384.97;5014282;28;1091;-32
2022/03/02 08:28:09;;;;;;;;;;;;;;;12.28;57.96;101380.69;5014153;28;1086;-32
2022/03/02 08:30:37;;;;;;;;;;;;;;;12.27;58.20;101378.94;5013784;28;1077;-32
2022/03/02 08:33:03;;;;;;;;;;;;;;;12.26;58.85;101379.91;5014176;28;1061;-32
2022/03/02 08:35:34;;;;;;;;;;;;;;;12.23;57.98;101377.38;5014092;28;1082;-32
2022/03/02 08:38:03;;;;;;;;;;;;;;;12.20;57.60;101380.22;5013997;28;1906;-32
2022/03/02 08:40:29;;;;;;;;;;;;;;;12.17;58.24;101375.03;5013804;28;1155;-32
2022/03/02 08:42:56;;;;;;;;;;;;;;;12.20;59.15;101368.75;5013739;28;1151;-32
2022/03/02 08:45:23;;;;;;;;;;;;;;;12.23;58.16;101365.94;5013716;28;1132;-32
2022/03/02 08:47:50;;;;;;;;;;;;;;;12.28;58.27;101371.88;5014068;28;995;-32
2022/03/02 08:50:16;;;;;;;;;;;;;;;12.27;58.12;101370.16;5013911;28;1086;-32
2022/03/02 08:52:43;;;;;;;;;;;;;;;12.25;58.24;101375.53;5013989;28;1097;-32
2022/03/02 08:55:11;;;;;;;;;;;;;;;12.27;58.60;101384.25;5014148;28;1069;-32
2022/03/02 08:57:40;;;;;;;;;;;;;;;12.26;58.14;101379.91;5013838;28;1066;-32
2022/03/02 09:00:08;;;;;;;;;;;;;;;12.26;58.33;101385.22;5016946;28;1973;-32
2022/03/02 09:02:36;;;;;;;;;;;;;;;12.28;58.98;101375.38;5017417;28;1407;-32
2022/03/02 09:05:03;;;;;;;;;;;;;;;12.26;59.10;101387.88;5017894;28;1020;-32
2022/03/02 09:07:30;;;;;;;;;;;;;;;12.29;58.12;101382.38;5017586;28;1107;-32
2022/03/02 09:09:56;;;;;;;;;;;;;;;12.27;58.81;101378.94;5017835;28;1003;-32
2022/03/02 09:12:24;;;;;;;;;;;;;;;12.29;58.70;101369.13;5017792;28;1077;-32
2022/03/02 09:14:51;;;;;;;;;;;;;;;12.29;58.79;101369.13;5017419;28;1140;-32
2022/03/02 09:17:18;;;;;;;;;;;;;;;12.31;57.86;101366.41;5017338;28;1079;-32
2022/03/02 09:19:45;;;;;;;;;;;;;;;12.25;58.41;101362.25;5017541;28;1906;-32
2022/03/02 09:22:11;;;;;;;;;;;;;;;12.21;58.02;101350.09;5017601;28;1067;-32
2022/03/02 09:24:39;;;;;;;;;;;;;;;12.20;58.96;101356.34;5017240;28;1167;-32
2022/03/02 09:27:07;;;;;;;;;;;;;;;12.16;58.00;101360.09;5017186;28;1084;-32
2022/03/02 09:29:37;;;;;;;;;;;;;;;12.16;59.23;101352.13;5017397;28;1081;-32
2022/03/02 09:32:04;;;;;;;;;;;;;;;12.19;58.33;101354.63;5017416;28;999;-32
2022/03/02 09:34:31;;;;;;;;;;;;;;;12.27;58.09;101354.25;5017083;28;1172;-32
2022/03/02 09:36:59;;;;;;;;;;;;;;;12.28;57.97;101340.91;5017985;28;1132;-32
2022/03/02 09:39:26;;;;;;;;;;;;;;;12.27;58.84;101347.13;5017198;28;1910;-32
2022/03/02 09:41:58;;;;;;;;;;;;;;;12.32;58.72;101347.78;5017168;28;1058;-32
2022/03/02 09:44:29;;;;;;;;;;;;;;;12.29;58.70;101347.91;5017156;28;1194;-32
2022/03/02 09:46:57;;;;;;;;;;;;;;;12.26;58.77;101339.28;5017144;28;1066;-32
2022/03/02 09:49:25;;;;;;;;;;;;;;;12.26;58.63;101332.19;5017148;28;1012;-32
2022/03/02 09:51:52;;;;;;;;;;;;;;;12.24;57.72;101334.03;5016735;28;1171;-32
2022/03/02 09:54:21;;;;;;;;;;;;;;;12.21;58.10;101320.94;5016906;28;1093;-32
2022/03/02 09:56:49;;;;;;;;;;;;;;;12.16;58.48;101324.78;5016675;28;1080;-32
2022/03/02 09:59:17;;;;;;;;;;;;;;;12.17;58.15;101321.16;5016487;28;1894;-32
2022/03/02 10:01:44;;;;;;;;;;;;;;;12.17;58.63;101316.72;5016462;28;1403;-32
2022/03/02 10:04:17;;;;;;;;;;;;;;;12.20;58.45;101321.03;5016164;28;1216;-32
2022/03/02 10:06:44;;;;;;;;;;;;;;;12.23;58.63;101311.09;5016433;28;1151;-32
2022/03/02 10:09:11;;;;;;;;;;;;;;;12.25;57.90;101303.94;5016123;28;1073;-32
2022/03/02 10:11:40;;;;;;;;;;;;;;;12.23;58.68;101311.09;5016625;28;1261;-32
2022/03/02 10:14:07;;;;;;;;;;;;;;;12.25;57.89;101295.97;5016672;28;1087;-32
2022/03/02 10:16:36;;;;;;;;;;;;;;;12.24;58.28;101291.63;5016258;28;939;-32
2022/03/02 10:19:05;;;;;;;;;;;;;;;12.24;58.62;101291.63;5016428;28;1906;-32
2022/03/02 10:21:33;;;;;;;;;;;;;;;12.30;58.52;101293.94;5016487;28;1081;-32
2022/03/02 10:24:00;;;;;;;;;;;;;;;12.29;58.66;101281.63;5016500;28;1007;-32
2022/03/02 10:26:28;;;;;;;;;;;;;;;12.30;57.88;101269.25;5016123;28;1179;-32
2022/03/02 10:29:00;;;;;;;;;;;;;;;12.33;58.29;101275.25;5016311;28;1070;-32
2022/03/02 10:31:33;;;;;;;;;;;;;;;12.32;57.83;101270.88;5016303;28;1074;-32
2022/03/02 10:34:02;;;;;;;;;;;;;;;12.31;58.39;101261.22;5015979;28;1100;-32
2022/03/02 10:36:30;;;;;;;;;;;;;;;12.32;58.34;101265.56;5015942;28;1088;-32
2022/03/02 10:39:03;;;;;;;;;;;;;;;12.34;58.38;101261.03;5016117;28;1906;-32
2022/03/02 10:41:34;;;;;;;;;;;;;;;12.30;58.33;101254.19;5016076;28;1082;-32
2022/03/02 10:44:03;;;;;;;;;;;;;;;12.31;58.58;101252.38;5016108;28;1070;-32
2022/03/02 10:46:30;;;;;;;;;;;;;;;12.32;58.54;101251.44;5015740;28;1159;-33
2022/03/02 10:49:03;;;;;;;;;;;;;;;12.30;58.55;101238.25;5015952;28;1109;-32
2022/03/02 10:51:30;;;;;;;;;;;;;;;12.32;58.49;101239.03;5015875;28;991;-32
2022/03/02 10:54:01;;;;;;;;;;;;;;;12.32;57.78;101224.94;5015995;28;1133;-32
2022/03/02 10:56:29;;;;;;;;;;;;;;;12.29;58.70;101230.38;5015539;28;1131;-32
2022/03/02 10:58:56;;;;;;;;;;;;;;;12.25;58.61;101237.63;5015669;28;1906;-32
2022/03/02 11:01:22;;;;;;;;;;;;;;;12.21;58.07;101221.97;5015645;28;1411;-32
2022/03/02 11:03:49;;;;;;;;;;;;;;;12.24;58.75;101217.38;5015652;28;1333;-32
2022/03/02 11:06:16;;;;;;;;;;;;;;;12.28;58.41;101208.31;5015711;28;1003;-32
2022/03/02 11:08:42;;;;;;;;;;;;;;;12.39;58.50;101204.22;5015389;28;1081;-32
2022/03/02 11:11:11;;;;;;;;;;;;;;;12.44;57.47;101188.94;5015590;28;1098;-32
2022/03/02 11:13:37;;;;;;;;;;;;;;;12.42;57.79;101185.53;5015229;28;1080;-32
2022/03/02 11:16:05;;;;;;;;;;;;;;;12.44;57.86;101181.84;5015487;28;1167;-32
2022/03/02 11:18:33;;;;;;;;;;;;;;;12.43;57.37;101177.47;5015054;28;1072;-32
2022/03/02 11:21:01;;;;;;;;;;;;;;;12.46;58.01;101168.50;5014511;28;1903;-32
2022/03/02 11:23:27;;;;;;;;;;;;;;;12.48;58.39;101161.31;5014730;28;1136;-32
2022/03/02 11:25:56;;;;;;;;;;;;;;;12.47;57.91;101159.59;5015312;28;1028;-32
2022/03/02 11:28:25;;;;;;;;;;;;;;;12.51;58.29;101161.13;5015263;28;1008;-32
2022/03/02 11:30:53;;;;;;;;;;;;;;;12.42;58.39;101157.19;5014835;28;1087;-33
2022/03/02 11:33:23;;;;;;;;;;;;;;;12.43;58.52;101158.03;5014895;28;1277;-32
2022/03/02 11:35:49;;;;;;;;;;;;;;;12.42;58.44;101145.75;5015089;28;1061;-32
2022/03/02 11:38:19;;;;;;;;;;;;;;;12.41;58.50;101146.66;5015410;28;2085;-32
2022/03/02 11:40:47;;;;;;;;;;;;;;;12.33;58.10;101125.84;5014957;28;1979;-32
2022/03/02 11:43:14;;;;;;;;;;;;;;;12.37;58.46;101131.84;5015172;28;1085;-32
2022/03/02 11:45:42;;;;;;;;;;;;;;;12.38;58.34;101129.13;5014966;28;1067;-32
2022/03/02 11:48:10;;;;;;;;;;;;;;;12.39;57.91;101128.16;5014592;28;1159;-32
2022/03/02 11:50:37;;;;;;;;;;;;;;;12.40;58.67;101129.06;5014581;28;1147;-32
2022/03/02 11:53:07;;;;;;;;;;;;;;;12.43;58.46;101126.22;5014556;28;1128;-32
2022/03/02 11:55:34;;;;;;;;;;;;;;;12.43;58.35;101113.81;5014462;28;1127;-32
2022/03/02 11:58:01;;;;;;;;;;;;;;;12.45;58.25;101121.69;5014424;28;1088;-32
2022/03/02 12:00:29;;;;;;;;;;;;;;;12.42;58.22;101114.75;5014618;28;1985;-32
2022/03/02 12:02:57;;;;;;;;;;;;;;;12.48;58.26;101121.53;5014126;28;1430;-32
2022/03/02 12:05:27;;;;;;;;;;;;;;;12.46;58.39;101104.84;5014568;28;1039;-32
2022/03/02 12:08:07;;;;;;;;;;;;;;;12.43;57.67;101100.53;5014577;28;1102;-32
2022/03/02 12:10:34;;;;;;;;;;;;;;;12.42;58.55;101092.69;5014292;28;1120;-32
2022/03/02 12:13:00;;;;;;;;;;;;;;;12.44;58.39;101096.97;5014517;28;1004;-32
2022/03/02 12:15:41;;;;;;;;;;;;;;;12.45;58.35;101090.69;5014926;28;2084;-33
2022/03/02 12:18:09;;;;;;;;;;;;;;;12.46;58.02;101088.94;5014315;28;1066;-32
2022/03/02 12:20:43;;;;;;;;;;;;;;;12.42;58.32;101079.44;5014300;28;1910;-32
2022/03/02 12:23:10;;;;;;;;;;;;;;;12.41;58.39;101086.50;5014361;28;1093;-32
2022/03/02 12:25:43;;;;;;;;;;;;;;;12.36;58.36;101070.00;5014332;28;1016;-32
2022/03/02 12:28:12;;;;;;;;;;;;;;;12.39;58.41;101075.13;5014305;28;1088;-32
2022/03/02 12:30:39;;;;;;;;;;;;;;;12.45;57.97;101088.03;5013880;28;1064;-32
2022/03/02 12:33:06;;;;;;;;;;;;;;;12.41;58.67;101080.34;5014072;28;1003;-32
2022/03/02 12:35:34;;;;;;;;;;;;;;;12.39;58.42;101067.16;5014204;28;1094;-32
2022/03/02 12:38:01;;;;;;;;;;;;;;;12.40;58.51;101081.31;5014136;28;1075;-32
2022/03/02 12:40:30;;;;;;;;;;;;;;;12.39;58.47;101068.97;5014044;28;1906;-32
2022/03/02 12:42:57;;;;;;;;;;;;;;;12.41;57.75;101065.28;5013720;28;1147;-32
2022/03/02 12:45:24;;;;;;;;;;;;;;;12.40;57.88;101062.75;5014036;28;1051;-32
2022/03/02 12:47:51;;;;;;;;;;;;;;;12.36;58.63;101051.44;5013937;28;1300;-32
2022/03/02 12:50:18;;;;;;;;;;;;;;;12.39;58.86;101061.03;5013687;28;1092;-32